createdAt,value
2023-04-23T00:01:48.676Z,99895.72
2023-04-23T00:05:53.114Z,99887.19
2023-04-23T00:09:57.406Z,99884.25
2023-04-23T00:14:01.887Z,99888.84
2023-04-23T00:18:04.915Z,99888.69
2023-04-23T00:22:08.087Z,99890.81
2023-04-23T00:26:11.056Z,99896.69
2023-04-23T00:30:16.830Z,99899.44
2023-04-23T00:34:19.739Z,99896.88
2023-04-23T00:38:22.607Z,99887.00
2023-04-23T00:42:27.016Z,99874.25
2023-04-23T00:46:31.298Z,99868.41
2023-04-23T00:50:34.543Z,99861.78
2023-04-23T00:54:37.468Z,99859.25
2023-04-23T00:58:40.727Z,99850.06
2023-04-23T01:02:46.138Z,99847.78
2023-04-23T01:06:49.260Z,99842.59
2023-04-23T01:10:52.225Z,99840.53
2023-04-23T01:14:55.582Z,99830.94
2023-04-23T01:19:00.208Z,99832.00
2023-04-23T01:23:04.733Z,99826.19
2023-04-23T01:27:07.927Z,99824.94
2023-04-23T01:31:10.934Z,99822.91
2023-04-23T01:35:14.206Z,99826.50
2023-04-23T01:39:18.585Z,99831.75
2023-04-23T01:43:21.585Z,99826.97
2023-04-23T01:47:25.163Z,99831.63
2023-04-23T01:51:29.554Z,99834.88
2023-04-23T01:55:37.395Z,99838.41
2023-04-23T01:59:41.438Z,99834.81
2023-04-23T02:03:45.200Z,99830.59
2023-04-23T02:07:48.643Z,99831.38
2023-04-23T02:11:53.288Z,99836.19
2023-04-23T02:15:56.275Z,99836.81
2023-04-23T02:19:59.189Z,99824.59
2023-04-23T02:24:02.044Z,99840.75
2023-04-23T02:28:07.450Z,99823.38
2023-04-23T02:32:10.393Z,99823.19
2023-04-23T02:36:13.671Z,99819.22
2023-04-23T02:40:16.569Z,99814.56
2023-04-23T02:44:20.807Z,99819.22
2023-04-23T02:48:24.046Z,99803.75
2023-04-23T02:52:26.993Z,99812.53
2023-04-23T02:56:30.042Z,99804.53
2023-04-23T03:00:34.391Z,99801.53
2023-04-23T03:04:37.416Z,99803.22
2023-04-23T03:08:40.825Z,99793.53
2023-04-23T03:12:44.526Z,99804.00
2023-04-23T03:16:48.878Z,99800.22
2023-04-23T03:20:52.669Z,99798.94
2023-04-23T03:24:55.605Z,99796.81
2023-04-23T03:28:58.838Z,99792.22
2023-04-23T03:33:03.613Z,99792.66
2023-04-23T03:37:07.279Z,99790.97
2023-04-23T03:41:12.580Z,99783.63
2023-04-23T03:45:15.926Z,99782.97
2023-04-23T03:49:20.871Z,99773.72
2023-04-23T03:53:23.915Z,99770.94
2023-04-23T03:57:49.367Z,99763.59
2023-04-23T04:01:58.547Z,99760.44
2023-04-23T04:06:03.824Z,99757.72
2023-04-23T04:10:07.657Z,99764.91
2023-04-23T04:14:10.543Z,99758.94
2023-04-23T04:18:13.694Z,99752.22
2023-04-23T04:22:18.334Z,99755.56
2023-04-23T04:26:21.360Z,99752.56
2023-04-23T04:30:25.136Z,99752.91
2023-04-23T04:34:28.038Z,99749.78
2023-04-23T04:38:32.359Z,99741.38
2023-04-23T04:42:35.273Z,99743.81
2023-04-23T04:46:40.650Z,99740.72
2023-04-23T04:50:44.356Z,99729.25
2023-04-23T04:54:48.804Z,99726.47
2023-04-23T04:58:51.733Z,99728.56
2023-04-23T05:02:55.289Z,99716.56
2023-04-23T05:06:58.249Z,99704.47
2023-04-23T05:11:03.988Z,99691.19
2023-04-23T05:15:07.588Z,99689.66
2023-04-23T05:19:10.544Z,99684.91
2023-04-23T05:23:13.437Z,99691.91
2023-04-23T05:27:18.871Z,99683.72
2023-04-23T05:31:21.890Z,99694.91
2023-04-23T05:35:24.800Z,99698.13
2023-04-23T05:39:27.837Z,99696.72
2023-04-23T05:43:32.190Z,99698.38
2023-04-23T05:47:35.087Z,99709.47
2023-04-23T05:51:38.263Z,99698.59
2023-04-23T05:55:41.121Z,99698.59
2023-04-23T05:59:45.567Z,99700.28
2023-04-23T06:03:48.622Z,99696.94
2023-04-23T06:07:51.696Z,99698.00
2023-04-23T06:11:54.830Z,99703.25
2023-04-23T06:15:59.159Z,99718.09
2023-04-23T06:20:02.112Z,99713.75
2023-04-23T06:24:05.295Z,99717.31
2023-04-23T06:28:08.292Z,99714.44
2023-04-23T06:32:21.717Z,99715.03
2023-04-23T06:36:24.800Z,99706.09
2023-04-23T06:40:28.111Z,99708.69
2023-04-23T06:44:31.046Z,99702.22
2023-04-23T06:48:35.253Z,99701.69
2023-04-23T06:52:38.287Z,99697.31
2023-04-23T06:56:41.231Z,99689.09
2023-04-23T07:00:44.533Z,99684.41
2023-04-23T07:04:49.703Z,99680.84
2023-04-23T07:08:52.645Z,99677.41
2023-04-23T07:12:55.575Z,99672.06
2023-04-23T07:16:59.376Z,99659.00
2023-04-23T07:21:03.814Z,99659.22
2023-04-23T07:25:08.751Z,99659.38
2023-04-23T07:29:11.713Z,99650.66
2023-04-23T07:33:14.652Z,99653.88
2023-04-23T07:37:18.939Z,99635.06
2023-04-23T07:41:21.940Z,99631.06
2023-04-23T07:45:25.043Z,99647.09
2023-04-23T07:49:28.690Z,99637.44
2023-04-23T07:53:33.052Z,99637.97
2023-04-23T07:57:36.124Z,99625.19
2023-04-23T08:01:39.361Z,99624.06
2023-04-23T08:05:42.681Z,99608.06
2023-04-23T08:09:47.603Z,99610.19
2023-04-23T08:13:51.016Z,99612.44
2023-04-23T08:17:54.124Z,99616.56
2023-04-23T08:21:57.197Z,99612.69
2023-04-23T08:26:02.958Z,99613.81
2023-04-23T08:30:07.637Z,99604.66
2023-04-23T08:34:10.766Z,99609.00
2023-04-23T08:38:13.820Z,99609.34
2023-04-23T08:42:25.106Z,99597.13
2023-04-23T08:46:30.145Z,99600.53
2023-04-23T08:50:33.941Z,99599.72
2023-04-23T08:54:38.827Z,99605.53
2023-04-23T08:58:43.905Z,99598.03
2023-04-23T09:02:47.784Z,99602.06
2023-04-23T09:06:50.966Z,99604.16
2023-04-23T09:10:56.021Z,99600.00
2023-04-23T09:15:01.484Z,99589.47
2023-04-23T09:19:07.439Z,99591.13
2023-04-23T09:23:10.618Z,99586.84
2023-04-23T09:27:13.812Z,99593.06
2023-04-23T09:31:21.655Z,99591.28
2023-04-23T09:35:28.894Z,99586.63
2023-04-23T09:39:31.953Z,99580.38
2023-04-23T09:43:35.161Z,99590.13
2023-04-23T09:47:41.256Z,99586.91
2023-04-23T09:51:47.416Z,99566.16
2023-04-23T09:55:54.054Z,99571.16
2023-04-23T10:00:11.113Z,99559.56
2023-04-23T10:04:22.512Z,99567.78
2023-04-23T10:08:26.436Z,99569.69
2023-04-23T10:12:46.168Z,99564.38
2023-04-23T10:16:53.234Z,99566.94
2023-04-23T10:21:02.346Z,99569.69
2023-04-23T10:25:08.988Z,99573.81
2023-04-23T10:29:15.460Z,99550.50
2023-04-23T10:33:29.504Z,99552.69
2023-04-23T10:37:35.883Z,99545.16
2023-04-23T10:41:40.665Z,99545.41
2023-04-23T10:45:44.978Z,99541.00
2023-04-23T10:49:51.804Z,99536.38
2023-04-23T10:53:57.043Z,99518.22
2023-04-23T10:58:02.665Z,99507.69
2023-04-23T11:02:10.284Z,99509.81
2023-04-23T11:06:15.842Z,99519.56
2023-04-23T11:10:20.475Z,99510.13
2023-04-23T11:14:34.502Z,99513.16
2023-04-23T11:18:52.451Z,99509.81
2023-04-23T11:22:55.969Z,99491.00
2023-04-23T11:27:01.624Z,99503.69
2023-04-23T11:31:05.038Z,99495.16
2023-04-23T11:35:11.369Z,99489.88
2023-04-23T11:39:16.181Z,99485.44
2023-04-23T11:43:22.194Z,99468.88
2023-04-23T11:47:27.353Z,99465.22
2023-04-23T11:51:31.108Z,99467.59
2023-04-23T11:55:34.621Z,99450.56
2023-04-23T11:59:39.750Z,99449.75
2023-04-23T12:03:51.223Z,99440.88
2023-04-23T12:07:54.944Z,99431.38
2023-04-23T12:11:59.347Z,99426.66
2023-04-23T12:16:04.590Z,99419.25
2023-04-23T12:20:12.089Z,99418.47
2023-04-23T12:24:15.124Z,99410.78
2023-04-23T12:28:23.708Z,99399.84
2023-04-23T12:32:30.618Z,99400.78
2023-04-23T12:36:37.058Z,99393.09
2023-04-23T12:40:40.197Z,99389.47
2023-04-23T12:44:43.252Z,99375.91
2023-04-23T12:48:58.810Z,99374.59
2023-04-23T12:53:02.809Z,99374.59
2023-04-23T12:57:07.184Z,99371.38
2023-04-23T13:01:11.900Z,99348.22
2023-04-23T13:05:16.736Z,99348.84
2023-04-23T13:09:19.984Z,99346.03
2023-04-23T13:13:23.387Z,99334.13
2023-04-23T13:17:26.678Z,99334.00
2023-04-23T13:21:31.170Z,99328.00
2023-04-23T13:25:34.193Z,99315.59
2023-04-23T13:29:37.254Z,99300.84
2023-04-23T13:33:40.377Z,99304.94
2023-04-23T13:37:44.975Z,99303.13
2023-04-23T13:41:59.163Z,99286.09
2023-04-23T13:46:09.813Z,99273.47
2023-04-23T13:50:12.806Z,99266.06
2023-04-23T13:54:17.195Z,99262.06
2023-04-23T13:58:20.229Z,99252.53
2023-04-23T14:02:25.311Z,99246.63
2023-04-23T14:06:28.979Z,99240.66
2023-04-23T14:10:33.464Z,99230.47
2023-04-23T14:14:36.625Z,99215.28
2023-04-23T14:18:39.861Z,99207.25
2023-04-23T14:22:43.261Z,99209.63
2023-04-23T14:26:50.058Z,99212.50
2023-04-23T14:30:56.012Z,99231.31
2023-04-23T14:34:59.033Z,99251.44
2023-04-23T14:39:05.344Z,99252.50
2023-04-23T14:43:15.513Z,99246.81
2023-04-23T14:47:19.328Z,99263.84
2023-04-23T14:51:22.720Z,99280.06
2023-04-23T14:55:25.931Z,99295.28
2023-04-23T14:59:30.329Z,99313.06
2023-04-23T15:03:33.652Z,99315.44
2023-04-23T15:07:36.734Z,99324.81
2023-04-23T15:11:42.274Z,99337.94
2023-04-23T15:15:51.010Z,99335.72
2023-04-23T15:19:56.216Z,99342.88
2023-04-23T15:23:59.379Z,99342.16
2023-04-23T15:28:03.190Z,99335.84
2023-04-23T15:32:08.976Z,99343.31
2023-04-23T15:36:12.238Z,99349.13
2023-04-23T15:40:15.220Z,99321.94
2023-04-23T15:44:19.086Z,99313.13
2023-04-23T15:48:24.290Z,99303.59
2023-04-23T15:52:27.325Z,99283.28
2023-04-23T15:56:30.652Z,99279.97
2023-04-23T16:00:33.978Z,99273.47
2023-04-23T16:04:38.783Z,99267.47
2023-04-23T16:08:42.065Z,99275.88
2023-04-23T16:12:45.856Z,99261.88
2023-04-23T16:16:49.065Z,99269.50
2023-04-23T16:20:53.790Z,99260.94
2023-04-23T16:24:56.836Z,99257.00
2023-04-23T16:33:06.748Z,99233.97
2023-04-23T16:37:13.193Z,99189.53
2023-04-23T16:41:17.783Z,99159.59
2023-04-23T16:45:23.275Z,99142.81
2023-04-23T16:49:26.709Z,99117.53
2023-04-23T16:53:31.262Z,99087.28
2023-04-23T16:57:35.958Z,99077.38
2023-04-23T17:01:39.383Z,99064.19
2023-04-23T17:05:44.038Z,99065.03
2023-04-23T17:09:48.760Z,99057.03
2023-04-23T17:13:51.816Z,99059.75
2023-04-23T17:17:55.230Z,99054.78
2023-04-23T17:21:58.853Z,99046.25
2023-04-23T17:26:03.392Z,99051.72
2023-04-23T17:30:07.430Z,99051.72
2023-04-23T17:34:10.659Z,99053.06
2023-04-23T17:38:13.967Z,99035.44
2023-04-23T17:42:18.641Z,99039.03
2023-04-23T17:46:21.981Z,99022.28
2023-04-23T17:50:25.402Z,99011.84
2023-04-23T17:54:28.472Z,99022.28
2023-04-23T17:58:33.501Z,99019.44
2023-04-23T18:02:40.492Z,99009.25
2023-04-23T18:06:43.866Z,99011.72
2023-04-23T18:10:47.000Z,98995.28
2023-04-23T18:14:51.760Z,98987.53
2023-04-23T18:18:55.171Z,98991.91
2023-04-23T18:22:58.219Z,98987.50
2023-04-23T18:27:02.123Z,98993.00
2023-04-23T18:31:06.857Z,98986.94
2023-04-23T18:35:10.889Z,98982.09
2023-04-23T18:39:14.022Z,98987.03
2023-04-23T18:43:18.908Z,98991.75
2023-04-23T18:47:26.084Z,98996.69
2023-04-23T18:51:33.582Z,99019.53
2023-04-23T18:55:38.084Z,98998.97
2023-04-23T18:59:41.685Z,99003.00
2023-04-23T19:03:46.721Z,99006.25
2023-04-23T19:07:49.895Z,98996.31
2023-04-23T19:11:52.936Z,99014.59
2023-04-23T19:15:58.344Z,99017.19
2023-04-23T19:20:02.927Z,99033.56
2023-04-23T19:24:07.227Z,99037.31
2023-04-23T19:28:10.749Z,99029.03
2023-04-23T19:32:13.795Z,99024.38
2023-04-23T19:36:18.270Z,99024.06
2023-04-23T19:40:21.330Z,99022.97
2023-04-23T19:44:24.343Z,99031.22
2023-04-23T19:48:27.697Z,99040.13
2023-04-23T19:52:32.183Z,99053.34
2023-04-23T19:56:35.282Z,99054.06
2023-04-23T20:00:41.464Z,99069.59
2023-04-23T20:04:45.820Z,99082.03
2023-04-23T20:09:07.430Z,99101.22
2023-04-23T20:13:10.463Z,99107.84
2023-04-23T20:17:13.422Z,99107.66
2023-04-23T20:21:16.448Z,99104.78
2023-04-23T20:25:24.863Z,99109.75
2023-04-23T20:29:30.730Z,99120.69
2023-04-23T20:33:33.954Z,99128.31
2023-04-23T20:37:37.284Z,99112.31
2023-04-23T20:41:41.594Z,99110.41
2023-04-23T20:45:46.806Z,99106.84
2023-04-23T20:49:51.161Z,99100.13
2023-04-23T20:53:54.133Z,99087.03
2023-04-23T20:57:58.692Z,99085.94
2023-04-23T21:02:01.782Z,99083.19
2023-04-23T21:06:05.002Z,99068.75
2023-04-23T21:10:08.509Z,99075.00
2023-04-23T21:14:12.893Z,99072.75
2023-04-23T21:18:16.055Z,99086.38
2023-04-23T21:22:19.230Z,99081.38
2023-04-23T21:26:22.435Z,99089.69
2023-04-23T21:30:31.049Z,99080.97
2023-04-23T21:34:34.193Z,99075.88
2023-04-23T21:38:37.116Z,99084.66
2023-04-23T21:42:40.075Z,99073.53
2023-04-23T21:46:44.997Z,99081.25
2023-04-23T21:50:49.809Z,99099.91
2023-04-23T21:54:52.717Z,99087.06
2023-04-23T21:58:55.704Z,99097.25
2023-04-23T22:03:00.444Z,99102.22
2023-04-23T22:07:05.966Z,99083.63
2023-04-23T22:11:09.171Z,99089.66
2023-04-23T22:15:13.744Z,99085.28
2023-04-23T22:19:18.834Z,99096.16
2023-04-23T22:23:21.890Z,99093.91
2023-04-23T22:27:24.902Z,99097.75
2023-04-23T22:31:27.846Z,99102.13
2023-04-23T22:35:32.432Z,99096.09
2023-04-23T22:39:35.482Z,99094.44
2023-04-23T22:43:39.238Z,99100.41
2023-04-23T22:47:42.830Z,99097.59
2023-04-23T22:51:47.225Z,99102.50
2023-04-23T22:55:50.519Z,99098.09
2023-04-23T22:59:53.486Z,99096.44
2023-04-23T23:03:56.641Z,99091.50
2023-04-23T23:08:01.054Z,99104.59
2023-04-23T23:12:04.600Z,99103.44
2023-04-23T23:16:08.205Z,99118.72
2023-04-23T23:20:12.362Z,99101.78
2023-04-23T23:24:17.520Z,99114.91
2023-04-23T23:28:20.436Z,99126.34
2023-04-23T23:32:23.363Z,99121.09
2023-04-23T23:36:26.302Z,99127.34
2023-04-23T23:40:30.625Z,99120.34
2023-04-23T23:44:33.899Z,99129.91
2023-04-23T23:48:36.846Z,99127.66
2023-04-23T23:52:39.775Z,99137.44
2023-04-23T23:56:44.322Z,99128.66
